Terminal Aerodrome Forecast
Issued by NWS

Current Version | Previous Version | Graphics & Text | Print | Product List | Glossary On
Versions: 1 2 3 4 5 6 7 8 9 10 11 12 13 14 15 16 17 18 19 20 21
000
FTUS41 KPBZ 261738
TAFMGW
TAF
KMGW 261738Z 2618/2718 27010KT P6SM BKN040
     FM262300 VRB04KT P6SM SCT250
     FM270200 00000KT P6SM SCT200
     FM270700 16003KT P6SM -SHRA VCTS OVC050CB
     FM271200 23003KT P6SM VCSH BKN015=

USA.gov is the U.S. government's official web portal to all federal, state and local government web resources and services.